createdAt,value
2023-05-04T05:04:58.702Z,71.40
2023-05-04T05:10:46.354Z,71.79
2023-05-04T05:16:13.397Z,71.43
2023-05-04T05:21:52.000Z,72.36
2023-05-04T05:27:51.869Z,72.43
2023-05-04T05:34:11.418Z,72.22
2023-05-04T05:39:34.638Z,72.49
2023-05-04T05:45:05.364Z,72.15
2023-05-04T05:56:55.369Z,71.96
2023-05-04T06:08:32.795Z,71.92
2023-05-04T06:13:58.318Z,72.25
2023-05-04T06:42:48.708Z,72.23
2023-05-04T06:48:38.118Z,71.56
2023-05-04T06:54:22.463Z,71.70
2023-05-04T07:05:59.826Z,71.63
2023-05-04T07:11:52.199Z,71.87
2023-05-04T07:17:56.793Z,71.25
2023-05-04T07:24:01.380Z,70.98
2023-05-04T07:35:56.311Z,70.31
2023-05-04T07:41:49.629Z,69.40
2023-05-04T07:54:15.250Z,68.94
2023-05-04T07:59:38.286Z,68.62
2023-05-04T08:05:11.319Z,68.58
2023-05-04T08:17:47.171Z,67.90
2023-05-04T08:23:12.512Z,67.51
2023-05-04T08:28:23.286Z,67.68
2023-05-04T08:34:24.122Z,66.73
2023-05-04T08:52:04.822Z,65.53
2023-05-04T08:57:12.665Z,63.26
2023-05-04T09:02:14.468Z,63.41
2023-05-04T09:07:26.740Z,63.16
2023-05-04T09:19:26.125Z,61.43
2023-05-04T09:24:28.714Z,61.11
2023-05-04T09:29:32.280Z,60.17
2023-05-04T09:34:34.365Z,59.81
2023-05-04T09:39:35.860Z,60.09
2023-05-04T09:44:37.684Z,60.12
2023-05-04T09:49:39.164Z,59.75
2023-05-04T09:54:44.530Z,58.02
2023-05-04T09:59:46.259Z,57.98
2023-05-04T10:04:49.270Z,58.30
2023-05-04T10:09:51.767Z,58.24
2023-05-04T10:14:53.843Z,57.35
2023-05-04T10:20:04.130Z,57.65
2023-05-04T10:25:27.943Z,56.67
2023-05-04T10:30:29.719Z,57.50
2023-05-04T10:35:32.191Z,56.69
2023-05-04T10:40:33.621Z,57.12
2023-05-04T10:45:39.656Z,57.28
2023-05-04T10:50:45.282Z,56.17
2023-05-04T10:55:48.504Z,56.34
2023-05-04T11:00:51.581Z,57.11
2023-05-04T11:05:54.743Z,56.69
2023-05-04T11:11:07.651Z,55.52
2023-05-04T11:16:12.320Z,55.38
2023-05-04T11:21:23.656Z,54.51
2023-05-04T11:26:25.878Z,55.22
2023-05-04T11:31:27.256Z,57.38
2023-05-04T11:36:28.848Z,55.11
2023-05-04T11:41:30.388Z,55.66
2023-05-04T11:46:34.324Z,54.61
2023-05-04T11:51:35.882Z,54.04
2023-05-04T11:56:41.781Z,54.06
2023-05-04T12:01:43.396Z,53.66
2023-05-04T12:06:46.540Z,53.50
2023-05-04T12:11:56.193Z,52.69
2023-05-04T12:17:01.649Z,53.83
2023-05-04T12:22:05.008Z,53.49
2023-05-04T12:27:12.574Z,52.91
2023-05-04T12:32:14.069Z,52.74
2023-05-04T12:37:15.747Z,52.40
2023-05-04T12:42:17.208Z,52.01
2023-05-04T12:47:23.541Z,51.73
2023-05-04T12:52:25.135Z,51.40
2023-05-04T12:57:26.628Z,51.38
2023-05-04T13:02:28.139Z,51.42
2023-05-04T13:07:30.330Z,49.43
2023-05-04T13:12:31.842Z,47.65
2023-05-04T13:17:34.573Z,45.90
2023-05-04T13:22:36.306Z,44.29
2023-05-04T13:27:38.062Z,49.08
2023-05-04T13:32:40.032Z,51.68
2023-05-04T13:37:42.157Z,47.45
2023-05-04T13:42:43.624Z,44.78
2023-05-04T13:47:45.178Z,49.08
2023-05-04T13:52:46.666Z,47.67
2023-05-04T13:57:48.544Z,51.33
2023-05-04T14:02:49.952Z,53.19
2023-05-04T14:07:52.263Z,51.13
2023-05-04T14:12:53.823Z,48.75
2023-05-04T14:17:55.362Z,48.37
2023-05-04T14:22:56.838Z,47.91
2023-05-04T14:27:58.374Z,46.75
2023-05-04T14:32:59.873Z,46.80
2023-05-04T14:38:01.416Z,45.21
2023-05-04T14:43:02.978Z,45.01
2023-05-04T14:48:05.161Z,44.41
2023-05-04T14:53:06.737Z,45.45
2023-05-04T14:58:09.686Z,45.15
2023-05-04T15:03:11.582Z,45.15
2023-05-04T15:08:13.150Z,44.55
2023-05-04T15:13:16.932Z,43.39
2023-05-04T15:18:18.461Z,44.01
2023-05-04T15:23:19.974Z,44.50
2023-05-04T15:28:22.806Z,45.24
2023-05-04T15:33:24.398Z,44.92
2023-05-04T15:38:28.471Z,45.29
2023-05-04T15:43:29.945Z,45.82
2023-05-04T15:48:31.464Z,46.58
2023-05-04T15:53:33.120Z,46.42
2023-05-04T15:58:34.627Z,46.88
2023-05-04T16:03:36.285Z,46.59
2023-05-04T16:08:38.474Z,46.06
2023-05-04T16:13:40.015Z,45.69
2023-05-04T16:18:41.480Z,46.68
2023-05-04T16:23:43.013Z,46.69
2023-05-04T16:28:45.248Z,46.52
2023-05-04T16:33:49.628Z,45.75
2023-05-04T16:38:51.133Z,45.56
2023-05-04T16:43:52.627Z,45.40
2023-05-04T16:48:54.606Z,45.76
2023-05-04T16:53:56.071Z,48.25
2023-05-04T16:58:57.522Z,47.85
2023-05-04T17:03:59.119Z,47.74
2023-05-04T17:09:00.908Z,47.04
2023-05-04T17:14:03.461Z,46.63
2023-05-04T17:19:04.961Z,47.00
2023-05-04T17:24:06.464Z,47.60
2023-05-04T17:29:08.001Z,48.46
2023-05-04T17:34:09.468Z,49.03
2023-05-04T17:39:11.094Z,49.51
2023-05-04T17:44:12.616Z,49.74
2023-05-04T17:49:14.144Z,50.25
2023-05-04T17:54:16.443Z,50.87
2023-05-04T17:59:18.013Z,51.15
2023-05-04T18:04:19.470Z,51.57
2023-05-04T18:09:21.000Z,51.97
2023-05-04T18:14:22.462Z,52.19
2023-05-04T18:19:24.765Z,52.28
2023-05-04T18:24:26.287Z,52.50
2023-05-04T18:29:27.778Z,52.85
2023-05-04T18:34:29.208Z,53.12
2023-05-04T18:39:31.693Z,53.22
2023-05-04T18:44:33.121Z,53.83
2023-05-04T18:49:34.630Z,54.25
2023-05-04T18:54:36.536Z,54.56
2023-05-04T18:59:38.556Z,54.72
2023-05-04T19:04:40.053Z,55.00
2023-05-04T19:09:41.511Z,54.97
2023-05-04T19:14:43.803Z,55.37
2023-05-04T19:19:45.386Z,55.69
2023-05-04T19:24:50.951Z,56.03
2023-05-04T19:29:52.371Z,56.42
2023-05-04T19:34:54.259Z,56.95
2023-05-04T19:39:55.767Z,56.56
2023-05-04T19:44:57.212Z,56.82
2023-05-04T19:49:58.859Z,56.98
2023-05-04T19:55:00.388Z,56.79
2023-05-04T20:00:02.597Z,57.03
2023-05-04T20:05:13.609Z,57.48
2023-05-04T20:10:15.104Z,57.48
2023-05-04T20:15:16.598Z,57.72
2023-05-04T20:20:20.188Z,57.54
2023-05-04T20:25:22.712Z,57.68
2023-05-04T20:30:27.946Z,57.94
2023-05-04T20:35:29.369Z,58.30
2023-05-04T20:40:30.778Z,57.88
2023-05-04T20:45:32.519Z,57.82
2023-05-04T20:50:34.017Z,58.19
2023-05-04T20:55:35.978Z,57.90
2023-05-04T21:00:37.422Z,58.57
2023-05-04T21:05:39.600Z,58.07
2023-05-04T21:10:41.249Z,57.92
2023-05-04T21:15:42.775Z,57.88
2023-05-04T21:20:44.269Z,57.99
2023-05-04T21:25:45.982Z,57.94
2023-05-04T21:30:47.609Z,57.80
2023-05-04T21:35:49.064Z,58.27
2023-05-04T21:40:50.589Z,58.35
2023-05-04T21:45:52.030Z,58.50
2023-05-04T21:50:53.458Z,58.74
2023-05-04T21:55:54.883Z,59.15
